createdAt,value
2023-01-18T00:02:01.486Z,13.80
2023-01-18T00:04:27.969Z,15.15
2023-01-18T00:06:54.188Z,15.63
2023-01-18T00:09:20.669Z,14.57
2023-01-18T00:11:48.686Z,14.20
2023-01-18T00:14:14.873Z,14.55
2023-01-18T00:16:41.121Z,15.00
2023-01-18T00:19:13.212Z,14.52
2023-01-18T00:21:40.343Z,14.90
2023-01-18T00:24:10.868Z,15.13
2023-01-18T00:26:37.932Z,14.57
2023-01-18T00:29:04.751Z,14.70
2023-01-18T00:31:31.571Z,14.63
2023-01-18T00:33:57.806Z,15.18
2023-01-18T00:36:24.014Z,15.27
2023-01-18T00:38:53.924Z,15.07
2023-01-18T00:41:20.805Z,14.90
2023-01-18T00:43:47.226Z,15.82
2023-01-18T00:46:17.905Z,15.00
2023-01-18T00:48:44.243Z,15.23
2023-01-18T00:51:14.445Z,14.73
2023-01-18T00:53:41.053Z,15.75
2023-01-18T00:56:08.594Z,15.52
2023-01-18T00:58:34.879Z,14.27
2023-01-18T01:01:01.228Z,16.38
2023-01-18T01:03:27.554Z,14.95
2023-01-18T01:06:12.248Z,14.55
2023-01-18T01:08:38.443Z,14.95
2023-01-18T01:11:06.527Z,15.18
2023-01-18T01:13:51.289Z,15.23
2023-01-18T01:16:36.099Z,15.75
2023-01-18T01:19:21.104Z,15.25
2023-01-18T01:22:06.070Z,15.18
2023-01-18T01:24:50.755Z,15.98
2023-01-18T01:27:17.416Z,15.27
2023-01-18T01:29:43.614Z,14.93
2023-01-18T01:32:10.082Z,15.45
2023-01-18T01:34:36.410Z,14.52
2023-01-18T01:37:03.139Z,14.95
2023-01-18T01:39:29.576Z,14.98
2023-01-18T01:41:55.859Z,14.85
2023-01-18T01:44:24.374Z,15.02
2023-01-18T01:46:50.576Z,14.48
2023-01-18T01:49:23.953Z,15.07
2023-01-18T01:51:52.240Z,13.82
2023-01-18T01:54:22.115Z,15.02
2023-01-18T01:56:49.518Z,14.23
2023-01-18T01:59:16.423Z,13.68
2023-01-18T02:01:44.348Z,13.65
2023-01-18T02:04:11.283Z,14.57
2023-01-18T02:06:38.620Z,13.70
2023-01-18T02:09:09.578Z,13.15
2023-01-18T02:11:35.893Z,13.73
2023-01-18T02:14:04.010Z,12.43
2023-01-18T02:16:56.059Z,13.02
2023-01-18T02:19:41.013Z,14.80
2023-01-18T02:22:22.558Z,13.93
2023-01-18T02:25:00.884Z,12.90
2023-01-18T02:27:43.579Z,13.93
2023-01-18T02:30:10.071Z,14.43
2023-01-18T02:32:36.247Z,13.52
2023-01-18T02:35:02.433Z,12.82
2023-01-18T02:37:42.463Z,13.40
2023-01-18T02:40:08.813Z,14.48
2023-01-18T02:42:55.458Z,13.85
2023-01-18T02:45:43.698Z,15.93
2023-01-18T02:48:10.314Z,14.95
2023-01-18T02:50:36.695Z,14.60
2023-01-18T02:53:02.925Z,14.70
2023-01-18T02:55:29.156Z,14.90
2023-01-18T02:57:56.858Z,14.55
2023-01-18T03:00:23.995Z,16.02
2023-01-18T03:02:50.823Z,14.70
2023-01-18T03:05:18.021Z,15.25
2023-01-18T03:07:56.603Z,15.10
2023-01-18T03:10:25.355Z,15.00
2023-01-18T03:13:00.152Z,14.90
2023-01-18T03:15:35.390Z,16.15
2023-01-18T03:18:12.669Z,14.30
2023-01-18T03:20:41.372Z,13.73
2023-01-18T03:23:31.591Z,14.50
2023-01-18T03:25:59.206Z,14.52
2023-01-18T03:28:49.937Z,14.90
2023-01-18T03:31:58.143Z,14.00
2023-01-18T03:34:29.906Z,12.98
2023-01-18T03:36:57.990Z,14.15
2023-01-18T03:39:28.319Z,12.23
2023-01-18T03:41:57.523Z,13.70
2023-01-18T03:44:31.136Z,13.27
2023-01-18T03:46:57.419Z,13.63
2023-01-18T03:49:24.407Z,14.05
2023-01-18T03:52:08.660Z,13.50
2023-01-18T03:54:34.981Z,14.05
2023-01-18T03:57:07.630Z,14.20
2023-01-18T03:59:34.977Z,14.13
2023-01-18T04:02:02.228Z,13.25
2023-01-18T04:04:28.479Z,13.20
2023-01-18T04:06:54.730Z,13.93
2023-01-18T04:09:21.148Z,13.85
2023-01-18T04:11:47.355Z,12.90
2023-01-18T04:14:13.584Z,12.05
2023-01-18T04:16:39.822Z,12.68
2023-01-18T04:19:07.291Z,13.10
2023-01-18T04:21:33.502Z,13.40
2023-01-18T04:23:59.792Z,12.77
2023-01-18T04:26:26.103Z,13.10
2023-01-18T04:28:52.508Z,12.70
2023-01-18T04:31:18.743Z,12.50
2023-01-18T04:33:45.679Z,12.43
2023-01-18T04:36:11.880Z,12.88
2023-01-18T04:38:38.072Z,12.80
2023-01-18T04:41:04.920Z,12.50
2023-01-18T04:43:31.316Z,12.90
2023-01-18T04:45:57.887Z,13.20
2023-01-18T04:48:24.120Z,13.15
2023-01-18T04:50:50.587Z,13.50
2023-01-18T04:53:17.078Z,13.55
2023-01-18T04:55:43.707Z,13.20
2023-01-18T04:58:10.349Z,12.50
2023-01-18T05:00:39.778Z,13.30
2023-01-18T05:03:09.757Z,12.30
2023-01-18T05:05:36.088Z,12.50
2023-01-18T05:08:02.288Z,12.55
2023-01-18T05:10:28.967Z,13.00
2023-01-18T05:12:55.255Z,12.45
2023-01-18T05:15:21.538Z,12.07
2023-01-18T05:17:47.825Z,12.75
2023-01-18T05:20:14.093Z,14.18
2023-01-18T05:22:40.375Z,13.10
2023-01-18T05:25:06.876Z,12.18
2023-01-18T05:27:33.285Z,12.63
2023-01-18T05:29:59.628Z,12.68
2023-01-18T05:32:25.922Z,13.20
2023-01-18T05:34:52.148Z,12.75
2023-01-18T05:37:18.343Z,12.63
2023-01-18T05:39:44.601Z,12.60
2023-01-18T05:42:10.862Z,12.13
2023-01-18T05:44:37.043Z,12.88
2023-01-18T05:47:03.428Z,12.75
2023-01-18T05:49:29.679Z,13.35
2023-01-18T05:51:55.873Z,13.18
2023-01-18T05:54:22.386Z,13.35
2023-01-18T05:56:48.594Z,12.57
2023-01-18T05:59:15.576Z,13.43
2023-01-18T06:01:42.385Z,12.20
2023-01-18T06:04:08.619Z,14.32
2023-01-18T06:06:34.891Z,13.07
2023-01-18T06:09:01.388Z,13.98
2023-01-18T06:11:27.808Z,13.60
2023-01-18T06:13:54.041Z,15.02
2023-01-18T06:16:20.369Z,14.23
2023-01-18T06:18:46.592Z,14.23
2023-01-18T06:21:12.826Z,13.60
2023-01-18T06:23:39.052Z,14.63
2023-01-18T06:26:05.382Z,15.13
2023-01-18T06:28:31.854Z,13.48
2023-01-18T06:30:58.097Z,14.43
2023-01-18T06:33:24.610Z,14.32
2023-01-18T06:35:50.963Z,13.55
2023-01-18T06:38:17.178Z,14.40
2023-01-18T06:40:43.382Z,15.55
2023-01-18T06:43:10.238Z,14.98
2023-01-18T06:45:36.485Z,15.30
2023-01-18T06:48:03.029Z,15.55
2023-01-18T06:50:29.269Z,18.33
2023-01-18T06:52:55.934Z,15.63
2023-01-18T06:55:22.553Z,17.05
2023-01-18T06:57:48.789Z,15.60
2023-01-18T07:00:16.758Z,16.95
2023-01-18T07:02:42.957Z,15.82
2023-01-18T07:05:09.335Z,14.63
2023-01-18T07:07:35.566Z,16.40
2023-01-18T07:10:01.870Z,16.17
2023-01-18T07:12:28.127Z,15.77
2023-01-18T07:14:54.367Z,16.00
2023-01-18T07:17:20.630Z,17.13
2023-01-18T07:19:46.850Z,17.27
2023-01-18T07:22:13.264Z,17.45
2023-01-18T07:24:39.497Z,16.65
2023-01-18T07:27:06.053Z,16.67
2023-01-18T07:29:32.294Z,17.92
2023-01-18T07:31:59.500Z,17.35
2023-01-18T07:34:25.731Z,17.13
2023-01-18T07:36:52.067Z,19.55
2023-01-18T07:39:18.272Z,18.17
2023-01-18T07:41:44.475Z,18.73
2023-01-18T07:44:11.674Z,19.60
2023-01-18T07:46:38.263Z,19.35
2023-01-18T07:49:05.690Z,19.85
2023-01-18T07:51:33.071Z,21.30
2023-01-18T07:53:59.293Z,21.95
2023-01-18T07:56:25.850Z,20.83
2023-01-18T07:58:52.957Z,20.08
2023-01-18T08:01:20.318Z,21.38
2023-01-18T08:03:47.945Z,21.15
2023-01-18T08:06:16.931Z,20.95
2023-01-18T08:08:43.614Z,20.90
2023-01-18T08:11:10.267Z,20.45
2023-01-18T08:13:36.552Z,20.75
2023-01-18T08:16:04.313Z,20.30
2023-01-18T08:18:30.600Z,20.70
2023-01-18T08:20:56.865Z,21.10
2023-01-18T08:23:23.240Z,20.98
2023-01-18T08:25:49.518Z,20.85
2023-01-18T08:28:16.017Z,20.75
2023-01-18T08:30:43.711Z,21.98
2023-01-18T08:33:10.384Z,21.38
2023-01-18T08:35:43.893Z,21.63
2023-01-18T08:38:10.363Z,20.90
2023-01-18T08:40:36.931Z,21.15
2023-01-18T08:43:04.112Z,22.27
2023-01-18T08:45:30.669Z,20.15
2023-01-18T08:48:02.242Z,20.35
2023-01-18T08:50:29.063Z,21.80
2023-01-18T08:52:55.456Z,22.88
2023-01-18T08:55:22.127Z,21.27
2023-01-18T08:57:49.100Z,20.40
2023-01-18T09:00:18.554Z,20.85
2023-01-18T09:02:44.839Z,21.60
2023-01-18T09:05:11.044Z,19.75
2023-01-18T09:07:37.267Z,20.60
2023-01-18T09:10:04.320Z,21.60
2023-01-18T09:12:30.537Z,20.50
2023-01-18T09:14:56.748Z,19.77
2023-01-18T09:17:23.084Z,19.90
2023-01-18T09:19:49.269Z,19.85
2023-01-18T09:22:15.514Z,19.13
2023-01-18T09:24:42.608Z,20.08
2023-01-18T09:27:08.865Z,20.67
2023-01-18T09:29:35.082Z,20.63
2023-01-18T09:32:01.339Z,20.25
2023-01-18T09:34:27.563Z,20.80
2023-01-18T09:36:53.811Z,20.98
2023-01-18T09:39:20.601Z,20.90
2023-01-18T09:41:54.732Z,22.40
2023-01-18T09:44:33.195Z,21.45
2023-01-18T09:47:05.407Z,21.48
2023-01-18T09:49:57.939Z,22.02
2023-01-18T09:52:50.780Z,21.77
2023-01-18T09:55:19.923Z,26.55
2023-01-18T09:58:04.694Z,24.05
2023-01-18T10:00:33.217Z,22.13
2023-01-18T10:03:01.422Z,22.42
2023-01-18T10:05:40.033Z,23.17
2023-01-18T10:08:18.106Z,22.58
2023-01-18T10:10:53.406Z,25.25
2023-01-18T10:13:22.892Z,23.42
2023-01-18T10:15:49.460Z,22.38
2023-01-18T10:18:16.740Z,22.50
2023-01-18T10:20:48.879Z,23.48
2023-01-18T10:23:18.828Z,22.65
2023-01-18T10:25:55.777Z,21.95
2023-01-18T10:28:46.684Z,22.02
2023-01-18T10:31:31.734Z,22.83
2023-01-18T10:34:00.125Z,21.90
2023-01-18T10:36:32.720Z,20.60
2023-01-18T10:39:01.612Z,21.52
2023-01-18T10:41:29.314Z,21.75
2023-01-18T10:43:56.188Z,21.30
2023-01-18T10:46:22.618Z,20.92
2023-01-18T10:48:50.713Z,21.88
2023-01-18T10:51:35.103Z,20.25
2023-01-18T10:54:19.924Z,20.10
2023-01-18T10:56:49.104Z,20.73
2023-01-18T10:59:26.658Z,20.63
2023-01-18T11:01:54.698Z,20.65
2023-01-18T11:04:28.792Z,19.52
2023-01-18T11:06:56.275Z,18.52
2023-01-18T11:09:34.788Z,19.95
2023-01-18T11:12:38.481Z,18.80
2023-01-18T11:15:13.571Z,17.75
2023-01-18T11:17:42.004Z,16.55
2023-01-18T11:20:16.094Z,15.80
2023-01-18T11:23:02.417Z,14.98
2023-01-18T11:25:35.859Z,14.10
2023-01-18T11:28:02.946Z,14.40
2023-01-18T11:30:29.335Z,14.52
2023-01-18T11:32:59.772Z,14.05
2023-01-18T11:35:28.097Z,14.40
2023-01-18T11:37:58.607Z,13.38
2023-01-18T11:40:29.251Z,12.83
2023-01-18T11:43:15.709Z,12.75
2023-01-18T11:46:20.468Z,11.68
2023-01-18T11:48:51.813Z,11.77
2023-01-18T11:51:27.764Z,10.80
2023-01-18T11:54:04.250Z,11.07
2023-01-18T11:56:33.890Z,9.93
2023-01-18T11:59:01.807Z,10.52
2023-01-18T12:01:27.988Z,9.65
2023-01-18T12:04:11.662Z,10.55
2023-01-18T12:07:03.944Z,8.75
2023-01-18T12:09:45.771Z,8.95
2023-01-18T12:12:19.334Z,9.60
2023-01-18T12:15:06.236Z,9.70
2023-01-18T12:17:58.607Z,9.63
2023-01-18T12:20:41.751Z,9.05
2023-01-18T12:23:27.084Z,9.45
2023-01-18T12:26:13.571Z,9.10
2023-01-18T12:28:59.950Z,8.80
2023-01-18T12:31:38.171Z,8.32
2023-01-18T12:34:15.522Z,7.97
2023-01-18T12:36:46.323Z,8.63
2023-01-18T12:39:22.884Z,8.90
2023-01-18T12:41:49.040Z,8.18
2023-01-18T12:44:31.628Z,7.97
2023-01-18T12:46:58.679Z,8.05
2023-01-18T12:49:26.159Z,8.18
2023-01-18T12:52:00.849Z,8.88
2023-01-18T12:54:41.946Z,8.45
2023-01-18T12:57:08.562Z,8.73
2023-01-18T12:59:55.267Z,8.43
2023-01-18T13:02:36.658Z,8.70
2023-01-18T13:05:11.844Z,8.43
2023-01-18T13:07:40.304Z,8.38
2023-01-18T13:10:13.403Z,8.32
2023-01-18T13:12:40.191Z,8.23
2023-01-18T13:15:09.433Z,8.15
2023-01-18T13:17:39.860Z,8.10
2023-01-18T13:20:12.608Z,7.30
2023-01-18T13:22:49.112Z,6.95
2023-01-18T13:25:27.328Z,6.63
2023-01-18T13:27:58.086Z,6.43
2023-01-18T13:30:25.155Z,5.72
2023-01-18T13:32:51.832Z,5.80
2023-01-18T13:35:31.428Z,6.13
2023-01-18T13:38:17.894Z,5.80
2023-01-18T13:40:56.385Z,5.82
2023-01-18T13:43:32.079Z,5.88
2023-01-18T13:45:59.540Z,6.07
2023-01-18T13:48:46.486Z,5.75
2023-01-18T13:51:41.785Z,5.70
2023-01-18T13:54:09.172Z,5.75
2023-01-18T13:56:39.203Z,5.90
2023-01-18T13:59:16.988Z,5.40
2023-01-18T14:01:44.818Z,5.55
2023-01-18T14:04:30.667Z,5.90
2023-01-18T14:06:59.018Z,6.43
2023-01-18T14:09:31.814Z,5.35
2023-01-18T14:11:58.331Z,6.03
2023-01-18T14:14:31.663Z,5.72
2023-01-18T14:17:27.738Z,6.15
2023-01-18T14:20:27.460Z,5.47
2023-01-18T14:23:01.095Z,5.72
2023-01-18T14:25:40.161Z,5.68
2023-01-18T14:28:11.672Z,6.03
2023-01-18T14:33:15.575Z,6.13
2023-01-18T14:35:52.562Z,5.80
2023-01-18T14:38:19.666Z,6.50
2023-01-18T14:40:47.401Z,6.13
2023-01-18T14:43:15.564Z,6.70
2023-01-18T14:45:47.802Z,6.80
2023-01-18T14:48:19.266Z,6.60
2023-01-18T14:53:16.796Z,6.72
2023-01-18T14:55:43.112Z,7.25
2023-01-18T14:58:12.125Z,8.35
2023-01-18T15:00:42.444Z,6.93
2023-01-18T15:03:12.382Z,7.13
2023-01-18T15:05:38.685Z,7.30
2023-01-18T15:08:05.320Z,7.50
2023-01-18T15:10:31.865Z,7.55
2023-01-18T15:12:59.136Z,7.95
2023-01-18T15:15:30.357Z,7.93
2023-01-18T15:18:00.312Z,8.18
2023-01-18T15:20:26.789Z,8.00
2023-01-18T15:22:53.326Z,7.53
2023-01-18T15:25:22.788Z,7.97
2023-01-18T15:27:51.435Z,8.38
2023-01-18T15:30:18.623Z,7.70
2023-01-18T15:32:45.579Z,8.45
2023-01-18T15:35:15.149Z,8.15
2023-01-18T15:37:41.989Z,8.30
2023-01-18T15:40:14.289Z,7.80
2023-01-18T15:42:48.112Z,8.63
2023-01-18T15:45:20.383Z,8.35
2023-01-18T15:47:48.592Z,8.55
2023-01-18T15:50:22.196Z,8.23
2023-01-18T15:53:01.831Z,8.27
2023-01-18T15:55:32.220Z,8.75
2023-01-18T15:58:00.837Z,7.78
2023-01-18T16:00:38.095Z,8.60
2023-01-18T16:03:05.157Z,7.63
2023-01-18T16:05:32.266Z,9.23
2023-01-18T16:08:19.057Z,9.27
2023-01-18T16:10:50.219Z,7.70
2023-01-18T16:13:32.899Z,8.05
2023-01-18T16:16:28.823Z,7.95
2023-01-18T16:19:04.714Z,8.50
2023-01-18T16:21:40.314Z,8.45
2023-01-18T16:24:14.808Z,8.68
2023-01-18T16:26:42.106Z,8.35
2023-01-18T16:29:08.902Z,7.55
2023-01-18T16:31:35.702Z,8.73
2023-01-18T16:34:03.128Z,8.23
2023-01-18T16:36:34.734Z,7.80
2023-01-18T16:39:04.296Z,7.88
2023-01-18T16:41:31.914Z,7.70
2023-01-18T16:43:58.123Z,7.00
2023-01-18T16:46:24.426Z,7.80
2023-01-18T16:48:51.683Z,7.07
2023-01-18T16:51:18.436Z,7.72
2023-01-18T16:53:44.762Z,7.22
2023-01-18T16:56:13.919Z,7.20
2023-01-18T16:58:40.131Z,7.05
2023-01-18T17:01:14.042Z,6.65
2023-01-18T17:03:40.501Z,6.97
2023-01-18T17:06:06.732Z,7.32
2023-01-18T17:08:33.166Z,6.85
2023-01-18T17:10:59.663Z,6.80
2023-01-18T17:13:26.141Z,6.80
2023-01-18T17:15:53.079Z,6.55
2023-01-18T17:18:22.349Z,6.85
2023-01-18T17:20:48.653Z,6.95
2023-01-18T17:23:14.905Z,6.65
2023-01-18T17:25:41.383Z,6.32
2023-01-18T17:28:08.517Z,6.60
2023-01-18T17:30:34.809Z,6.20
2023-01-18T17:33:01.560Z,6.55
2023-01-18T17:35:28.517Z,6.45
2023-01-18T17:38:00.990Z,6.53
2023-01-18T17:40:40.164Z,7.00
2023-01-18T17:43:17.361Z,6.28
2023-01-18T17:45:59.589Z,6.22
2023-01-18T17:48:27.549Z,5.97
2023-01-18T17:50:53.727Z,6.78
2023-01-18T17:53:19.957Z,6.68
2023-01-18T17:55:46.343Z,6.97
2023-01-18T17:58:12.606Z,6.65
2023-01-18T18:00:38.969Z,6.93
2023-01-18T18:03:05.727Z,6.13
2023-01-18T18:05:32.159Z,6.72
2023-01-18T18:07:58.389Z,6.97
2023-01-18T18:10:24.613Z,7.10
2023-01-18T18:12:50.880Z,7.10
2023-01-18T18:15:17.150Z,6.75
2023-01-18T18:17:43.395Z,6.55
2023-01-18T18:20:10.757Z,6.85
2023-01-18T18:22:37.520Z,6.60
2023-01-18T18:25:04.198Z,6.93
2023-01-18T18:27:44.387Z,6.63
2023-01-18T18:30:12.753Z,6.57
2023-01-18T18:32:39.020Z,7.15
2023-01-18T18:35:14.687Z,6.78
2023-01-18T18:37:49.701Z,7.00
2023-01-18T18:40:16.170Z,6.63
2023-01-18T18:42:45.305Z,6.90
2023-01-18T18:45:16.071Z,6.80
2023-01-18T18:47:42.326Z,7.65
2023-01-18T18:50:09.012Z,7.38
2023-01-18T18:52:35.259Z,7.88
2023-01-18T18:55:01.568Z,7.97
2023-01-18T18:57:29.300Z,8.20
2023-01-18T18:59:55.520Z,9.15
2023-01-18T19:02:21.789Z,9.63
2023-01-18T19:04:48.069Z,9.13
2023-01-18T19:07:14.271Z,9.85
2023-01-18T19:09:40.576Z,9.93
2023-01-18T19:12:06.798Z,10.27
2023-01-18T19:14:33.085Z,10.18
2023-01-18T19:17:00.159Z,10.35
2023-01-18T19:19:26.886Z,10.13
2023-01-18T19:21:53.275Z,9.90
2023-01-18T19:24:19.636Z,10.20
2023-01-18T19:26:45.843Z,10.20
2023-01-18T19:29:12.248Z,10.30
2023-01-18T19:31:39.413Z,9.50
2023-01-18T19:34:06.030Z,10.15
2023-01-18T19:36:33.868Z,10.07
2023-01-18T19:39:02.241Z,9.98
2023-01-18T19:41:30.232Z,9.70
2023-01-18T19:43:56.636Z,9.27
2023-01-18T19:46:22.889Z,9.40
2023-01-18T19:48:49.142Z,8.93
2023-01-18T19:51:22.354Z,8.50
2023-01-18T19:53:49.401Z,8.60
2023-01-18T19:56:15.738Z,8.23
2023-01-18T19:58:41.974Z,8.45
2023-01-18T20:01:09.522Z,8.55
2023-01-18T20:03:37.132Z,7.25
2023-01-18T20:06:07.420Z,8.80
2023-01-18T20:08:34.129Z,8.05
2023-01-18T20:11:04.750Z,7.80
2023-01-18T20:13:31.055Z,8.13
2023-01-18T20:15:57.629Z,7.07
2023-01-18T20:18:23.873Z,7.35
2023-01-18T20:20:50.832Z,7.68
2023-01-18T20:23:17.063Z,6.88
2023-01-18T20:25:43.276Z,7.40
2023-01-18T20:28:09.539Z,7.85
2023-01-18T20:30:35.804Z,7.38
2023-01-18T20:33:02.526Z,7.40
2023-01-18T20:35:29.160Z,7.13
2023-01-18T20:37:55.524Z,6.80
2023-01-18T20:40:21.766Z,6.90
2023-01-18T20:42:48.002Z,6.15
2023-01-18T20:45:14.333Z,6.15
2023-01-18T20:47:40.547Z,7.20
2023-01-18T20:50:06.876Z,6.15
2023-01-18T20:52:33.116Z,5.88
2023-01-18T20:54:59.515Z,6.57
2023-01-18T20:57:29.282Z,6.32
2023-01-18T20:59:55.474Z,6.90
2023-01-18T21:02:21.798Z,6.28
2023-01-18T21:04:48.029Z,7.13
2023-01-18T21:07:14.230Z,6.47
2023-01-18T21:09:40.433Z,5.93
2023-01-18T21:12:06.645Z,6.68
2023-01-18T21:14:32.853Z,6.80
2023-01-18T21:16:59.135Z,6.82
2023-01-18T21:19:25.543Z,6.70
2023-01-18T21:21:51.764Z,6.80
2023-01-18T21:24:18.054Z,6.07
2023-01-18T21:26:44.320Z,6.65
2023-01-18T21:29:10.531Z,7.20
2023-01-18T21:31:37.936Z,6.63
2023-01-18T21:34:05.714Z,6.82
2023-01-18T21:36:31.918Z,7.05
2023-01-18T21:38:58.195Z,6.90
2023-01-18T21:41:43.119Z,7.38
2023-01-18T21:44:30.876Z,7.15
2023-01-18T21:46:57.195Z,7.13
2023-01-18T21:50:15.078Z,7.32
2023-01-18T21:52:48.763Z,6.90
2023-01-18T21:55:15.363Z,7.50
2023-01-18T21:57:41.618Z,7.10
2023-01-18T22:00:08.791Z,7.30
2023-01-18T22:02:35.229Z,7.00
2023-01-18T22:05:03.438Z,8.18
2023-01-18T22:07:31.136Z,7.47
2023-01-18T22:10:06.058Z,8.02
2023-01-18T22:12:34.731Z,8.05
2023-01-18T22:15:01.968Z,8.82
2023-01-18T22:17:28.513Z,7.60
2023-01-18T22:19:54.714Z,8.10
2023-01-18T22:22:20.920Z,8.40
2023-01-18T22:24:47.109Z,8.23
2023-01-18T22:27:13.330Z,8.48
2023-01-18T22:29:39.513Z,8.23
2023-01-18T22:32:05.847Z,7.80
2023-01-18T22:34:32.089Z,8.77
2023-01-18T22:36:58.353Z,8.68
2023-01-18T22:39:24.676Z,8.30
2023-01-18T22:41:50.902Z,7.80
2023-01-18T22:44:17.195Z,8.05
2023-01-18T22:46:43.500Z,7.50
2023-01-18T22:49:09.709Z,8.65
2023-01-18T22:51:35.915Z,8.65
2023-01-18T22:54:02.163Z,8.77
2023-01-18T22:56:28.370Z,8.68
2023-01-18T22:58:54.660Z,9.10
2023-01-18T23:01:22.558Z,9.07
2023-01-18T23:03:49.935Z,9.05
2023-01-18T23:06:16.688Z,9.18
2023-01-18T23:08:43.058Z,7.82
2023-01-18T23:11:14.038Z,9.25
2023-01-18T23:13:41.986Z,8.85
2023-01-18T23:16:28.863Z,8.27
2023-01-18T23:18:55.100Z,8.57
2023-01-18T23:21:21.332Z,7.97
2023-01-18T23:23:47.547Z,9.20
2023-01-18T23:26:13.806Z,8.40
2023-01-18T23:28:43.022Z,8.77
2023-01-18T23:31:14.207Z,8.70
2023-01-18T23:33:40.505Z,8.20
2023-01-18T23:36:07.316Z,7.90
2023-01-18T23:38:52.090Z,8.70
2023-01-18T23:41:36.748Z,8.02
2023-01-18T23:44:21.972Z,9.23
2023-01-18T23:47:06.933Z,8.70
2023-01-18T23:49:52.042Z,8.38
2023-01-18T23:52:36.810Z,8.57
2023-01-18T23:55:03.791Z,8.00
2023-01-18T23:57:30.669Z,8.45
2023-01-18T23:59:56.972Z,8.98
